Goose Prairie, Washington
Current Conditions -  °F | °C
As of 4:20 AM on Friday 31 Oct 2014 (Local Time) from KELN Reporting Station
Light Rain Light Rain  
Wind Chill: 51°   Ceiling: 6500
Heat Index: 51°   Visibility: 3mi
Dew Point: 48°   Wind: 0mph
Humidity: 89%   Direction: NA
Pressure: 29.74"   Gusts: NA
Location:  46.89°N, 121.27°W
Report Text: KELN 311120Z AUTO 00000KT 3SM -RA BR SCT014 OVC065 11/09 A2974 RMK AO2 P0003 T01060089
Loading
Personal Weather Stations






























Interactive Weather Map
Tropical Storm Tracking
New forecast layout! Learn more

10-Day Weather Forecast

Advertisements
Track Severe Weather on mobile